AirNav   Everest Fuels
 
 989 users online  

1IL0 Barnstorm Field Airport
El Paso, Illinois, USA

GOING TO EL PASO?


FAA INFORMATION EFFECTIVE 03 NOVEMBER 2022

Location

FAA Identifier: 1IL0
Lat/Long: 40-46-30.0000N 089-00-04.0000W
40-46.500000N 089-00.066667W
40.7750000,-89.0011111
(estimated)
Elevation: 731 ft. / 223 m (estimated)
Variation: 01W (1995)
From city: 3 miles N of EL PASO, IL
Time zone: UTC -6 (UTC -5 during Daylight Saving Time)
Zip code: 61738

Airport Operations

Airport use: Private use. Permission required prior to landing
Activation date: 03/1999
Control tower: no
ARTCC: CHICAGO CENTER
FSS: KANKAKEE FLIGHT SERVICE STATION
Attendance: IREG
Wind indicator: yes
Segmented circle: no

Airport Communications

WX AWOS-3PT at BMI (18 nm S): 135.35 (309-661-9478)
WX AWOS-3 at PNT (19 nm NE): 119.675 (815-844-0923)

Nearby radio navigation aids

VOR radial/distance  VOR name  Freq  Var
PNTr254/12.5PONTIAC VOR/DME109.6003E
BMIr347/17.9BLOOMINGTON VOR/DME108.2003E
BDFr131/35.2BRADFORD VORTAC114.7000E
PIAr077/36.4PEORIA VORTAC115.2004E
RBSr285/39.8ROBERTS VOR/DME116.8002E

 
NDB name  Hdg/Dist  Freq  Var  ID
EGROW339/14.133403WLH .-.. ....
ABRAHAM023/40.032900EAAA .- .- .-

Airport Services

Runway Information

Runway 9/27

Dimensions: 2650 x 70 ft. / 808 x 21 m
Surface: turf
Runway edge markings: RY 09 DSPLCD THLD MKD WITH WHITE TIRES.
RUNWAY 9  RUNWAY 27
Traffic pattern: leftleft
Displaced threshold: 450 ft.no
Obstructions: 30 ft. plinenone

Airport Ownership and Management from official FAA records

Ownership: Privately-owned
Owner: DAVID BURROUGHS
1262 COUNTY RD 2800 E
EL PASO, IL 61738
Phone (309) 261-0992
Manager: DAVID BURROUGHS
1262 COUNTY RD 2800 E
EL PASO, IL 61738
Phone (309) 261-0992

Airport Operational Statistics

Aircraft based on the field: 2
Single engine airplanes: 2
    

Additional Remarks

OWNER DESIRES ARPT NOT BE CHARTED.
FOR CD CTC CHICAGO ARTCC AT 630-906-8921.

Instrument Procedures

There are no published instrument procedures at 1IL0.

Some nearby airports with instrument procedures:

KBMI - Central Illinois Regional Airport/Bloomington-Normal (18 nm S)
KPNT - Pontiac Municipal Airport (19 nm NE)
C75 - Marshall County Airport (23 nm NW)
3MY - Mount Hawley Auxiliary Airport (28 nm W)
KPIA - General Downing - Peoria International Airport (32 nm W)
 
Loc | Ops | Rwys | IFR | FBO | Links
Com | Nav | Svcs | Stats | Notes
Area around 1IL0 (Barnstorm Field Airport)
 
Road maps at: MapQuest Bing Google
 
Aerial photo
No photo
 
Sectional chart

 
Airport distance calculator
Flying to Barnstorm Field Airport? Find the distance to fly.

From to 1IL0

Sunrise and sunset
Times for 29-Nov-2022
 Local
(UTC-6)
 Zulu
(UTC)
Morning civil twilight06:3012:30
Sunrise07:0013:00
Sunset16:2922:29
Evening civil twilight16:5922:59

Current date and time
Zulu (UTC)  30-Nov-2022 00:41:17
Local (UTC-6)  29-Nov-2022 18:41:17
 
METAR
KPNT 
19nm NE 
300010Z AUTO 19018KT 10SM OVC015 14/14 A2951 RMK AO2 T01350135
KBMI 
19nm S 
292356Z 19022G31KT 10SM OVC013 13/12 A2952 RMK AO2 PK WND 20031/2347 SLP993 T01330117 10150 20128 51000
KC75 
23nm NW 
300015Z AUTO 27018G24KT 7SM RA SCT012 BKN020 OVC036 13/12 A2952 RMK AO2 P0002 T01250124
KPIA 
32nm W 
300009Z 29017G37KT 10SM -RA SCT018 BKN022 OVC090 10/08 A2955 RMK AO2 PK WND 28037/0003 WSHFT 2351 RAB2359 PRESRR P0000 T01000078
KVYS 
35nm N 
300015Z AUTO 19019G26KT 10SM SCT014 OVC037 14/12 A2947 RMK AO2 T01350117
TAF
KBMI 
19nm S 
291851Z 2919/3018 19022G35KT P6SM VCSH BKN025 TEMPO 3000/3002 26020G37KT 3SM SHRA SCT006 BKN015 FM300200 27019G32KT P6SM FEW015 BKN025 FM300900 28017G28KT P6SM SKC
NOTAMs
Click for the latest NOTAMs
NOTAMs are issued by the DoD/FAA and will open in a separate window not controlled by AirNav.

 

 
 

Would you like to see your business listed on this page?

 If your business provides an interesting product or service to pilots, flight crews, aircraft, or users of the Barnstorm Field Airport, you should consider listing it here.  To start the listing process, click on the button below
 
Add a business
 

Other Pages about Barnstorm Field Airport

Update a link
 
Copyright © AirNav, LLC. All rights reserved. Privacy Policy  Contact